sensor_id;sensor_type;location;lat;lon;timestamp;temperature;humidity
41953;DHT22;63613;28.200;112.870;2023-04-07T00:00:05;17.30;84.90
41953;DHT22;63613;28.200;112.870;2023-04-07T00:02:33;17.30;84.90
41953;DHT22;63613;28.200;112.870;2023-04-07T00:05:00;17.30;85.00
41953;DHT22;63613;28.200;112.870;2023-04-07T00:07:28;17.30;85.20
41953;DHT22;63613;28.200;112.870;2023-04-07T00:09:54;17.40;85.10
41953;DHT22;63613;28.200;112.870;2023-04-07T00:12:21;17.40;85.10
41953;DHT22;63613;28.200;112.870;2023-04-07T00:14:48;17.40;85.20
41953;DHT22;63613;28.200;112.870;2023-04-07T00:17:15;17.40;85.30
41953;DHT22;63613;28.200;112.870;2023-04-07T00:20:02;17.30;85.30
41953;DHT22;63613;28.200;112.870;2023-04-07T00:22:29;17.40;85.20
41953;DHT22;63613;28.200;112.870;2023-04-07T00:24:56;17.40;85.10
41953;DHT22;63613;28.200;112.870;2023-04-07T00:27:23;17.40;85.30
41953;DHT22;63613;28.200;112.870;2023-04-07T00:29:49;17.50;85.40
41953;DHT22;63613;28.200;112.870;2023-04-07T00:32:16;17.50;85.40
41953;DHT22;63613;28.200;112.870;2023-04-07T00:34:43;17.50;85.40
41953;DHT22;63613;28.200;112.870;2023-04-07T00:37:10;17.40;85.30
41953;DHT22;63613;28.200;112.870;2023-04-07T00:39:37;17.50;85.30
41953;DHT22;63613;28.200;112.870;2023-04-07T00:42:04;17.60;85.50
41953;DHT22;63613;28.200;112.870;2023-04-07T00:44:33;17.60;85.60
41953;DHT22;63613;28.200;112.870;2023-04-07T00:46:59;17.60;85.50
41953;DHT22;63613;28.200;112.870;2023-04-07T00:49:27;17.60;85.70
41953;DHT22;63613;28.200;112.870;2023-04-07T00:51:57;17.60;85.80
41953;DHT22;63613;28.200;112.870;2023-04-07T00:54:24;17.70;85.90
41953;DHT22;63613;28.200;112.870;2023-04-07T00:56:52;17.70;85.80
41953;DHT22;63613;28.200;112.870;2023-04-07T00:59:19;17.70;85.70
41953;DHT22;63613;28.200;112.870;2023-04-07T01:02:13;17.80;85.60
41953;DHT22;63613;28.200;112.870;2023-04-07T01:04:52;17.80;85.70
41953;DHT22;63613;28.200;112.870;2023-04-07T01:07:27;17.80;85.60
41953;DHT22;63613;28.200;112.870;2023-04-07T01:10:00;17.80;85.60
41953;DHT22;63613;28.200;112.870;2023-04-07T01:12:43;17.80;85.90
41953;DHT22;63613;28.200;112.870;2023-04-07T01:15:13;17.90;85.80
41953;DHT22;63613;28.200;112.870;2023-04-07T01:17:58;17.80;85.70
41953;DHT22;63613;28.200;112.870;2023-04-07T01:20:26;17.90;86.00
41953;DHT22;63613;28.200;112.870;2023-04-07T01:22:55;17.90;86.10
41953;DHT22;63613;28.200;112.870;2023-04-07T01:31:11;18.00;86.30
41953;DHT22;63613;28.200;112.870;2023-04-07T01:33:39;18.00;86.30
41953;DHT22;63613;28.200;112.870;2023-04-07T01:36:09;18.00;86.40
41953;DHT22;63613;28.200;112.870;2023-04-07T01:38:37;18.00;86.40
41953;DHT22;63613;28.200;112.870;2023-04-07T01:41:08;18.00;86.40
41953;DHT22;63613;28.200;112.870;2023-04-07T01:43:36;18.10;86.50
41953;DHT22;63613;28.200;112.870;2023-04-07T01:46:04;18.10;86.60
41953;DHT22;63613;28.200;112.870;2023-04-07T01:48:32;18.10;86.70
41953;DHT22;63613;28.200;112.870;2023-04-07T01:51:03;18.10;86.80
41953;DHT22;63613;28.200;112.870;2023-04-07T01:53:31;18.10;86.90
41953;DHT22;63613;28.200;112.870;2023-04-07T01:55:58;18.10;87.00
41953;DHT22;63613;28.200;112.870;2023-04-07T01:58:25;18.10;87.10
41953;DHT22;63613;28.200;112.870;2023-04-07T02:00:54;18.20;86.90
41953;DHT22;63613;28.200;112.870;2023-04-07T02:03:34;18.20;86.90
41953;DHT22;63613;28.200;112.870;2023-04-07T02:06:06;18.30;87.00
41953;DHT22;63613;28.200;112.870;2023-04-07T02:08:35;18.20;87.80
41953;DHT22;63613;28.200;112.870;2023-04-07T02:11:04;18.30;88.30
41953;DHT22;63613;28.200;112.870;2023-04-07T02:13:34;18.30;88.90
41953;DHT22;63613;28.200;112.870;2023-04-07T02:16:04;18.30;89.30
41953;DHT22;63613;28.200;112.870;2023-04-07T02:18:32;18.30;89.50
41953;DHT22;63613;28.200;112.870;2023-04-07T02:21:00;18.30;89.60
41953;DHT22;63613;28.200;112.870;2023-04-07T02:23:27;18.30;89.70
41953;DHT22;63613;28.200;112.870;2023-04-07T02:25:57;18.40;89.90
41953;DHT22;63613;28.200;112.870;2023-04-07T02:28:24;18.40;89.70
41953;DHT22;63613;28.200;112.870;2023-04-07T02:30:51;18.40;89.60
41953;DHT22;63613;28.200;112.870;2023-04-07T02:33:18;18.40;89.60
41953;DHT22;63613;28.200;112.870;2023-04-07T02:35:45;18.50;89.70
41953;DHT22;63613;28.200;112.870;2023-04-07T02:38:12;18.50;89.70
41953;DHT22;63613;28.200;112.870;2023-04-07T02:40:38;18.50;89.70
41953;DHT22;63613;28.200;112.870;2023-04-07T02:43:06;18.60;89.60
41953;DHT22;63613;28.200;112.870;2023-04-07T02:45:32;18.60;89.70
41953;DHT22;63613;28.200;112.870;2023-04-07T02:48:01;18.70;89.70
41953;DHT22;63613;28.200;112.870;2023-04-07T02:50:27;18.60;89.40
41953;DHT22;63613;28.200;112.870;2023-04-07T02:52:54;18.70;89.40
41953;DHT22;63613;28.200;112.870;2023-04-07T02:55:21;18.70;89.50
41953;DHT22;63613;28.200;112.870;2023-04-07T02:57:48;18.70;89.60
41953;DHT22;63613;28.200;112.870;2023-04-07T03:00:15;18.80;89.70
41953;DHT22;63613;28.200;112.870;2023-04-07T03:02:42;18.80;89.80
41953;DHT22;63613;28.200;112.870;2023-04-07T03:05:09;18.80;89.80
41953;DHT22;63613;28.200;112.870;2023-04-07T03:07:36;18.80;89.70
41953;DHT22;63613;28.200;112.870;2023-04-07T03:10:03;18.90;89.70
41953;DHT22;63613;28.200;112.870;2023-04-07T03:12:30;18.90;89.60
41953;DHT22;63613;28.200;112.870;2023-04-07T03:14:56;18.90;89.40
41953;DHT22;63613;28.200;112.870;2023-04-07T03:17:25;19.00;89.40
41953;DHT22;63613;28.200;112.870;2023-04-07T03:19:51;19.00;89.40
41953;DHT22;63613;28.200;112.870;2023-04-07T03:22:18;19.10;89.50
41953;DHT22;63613;28.200;112.870;2023-04-07T03:24:45;19.10;89.60
41953;DHT22;63613;28.200;112.870;2023-04-07T03:27:13;19.10;89.50
41953;DHT22;63613;28.200;112.870;2023-04-07T03:29:42;19.20;89.50
41953;DHT22;63613;28.200;112.870;2023-04-07T03:32:09;19.20;89.50
41953;DHT22;63613;28.200;112.870;2023-04-07T03:34:39;19.30;89.60
41953;DHT22;63613;28.200;112.870;2023-04-07T03:37:06;19.30;89.50
41953;DHT22;63613;28.200;112.870;2023-04-07T03:39:33;19.30;89.60
41953;DHT22;63613;28.200;112.870;2023-04-07T03:42:02;19.30;89.50
41953;DHT22;63613;28.200;112.870;2023-04-07T03:44:29;19.40;89.40
41953;DHT22;63613;28.200;112.870;2023-04-07T03:46:57;19.40;89.50
41953;DHT22;63613;28.200;112.870;2023-04-07T03:49:24;19.40;89.50
41953;DHT22;63613;28.200;112.870;2023-04-07T03:51:52;19.50;89.50
41953;DHT22;63613;28.200;112.870;2023-04-07T03:54:19;19.50;89.40
41953;DHT22;63613;28.200;112.870;2023-04-07T03:56:46;19.50;89.40
41953;DHT22;63613;28.200;112.870;2023-04-07T03:59:13;19.60;89.50
41953;DHT22;63613;28.200;112.870;2023-04-07T04:01:40;19.60;89.50
41953;DHT22;63613;28.200;112.870;2023-04-07T04:04:07;19.60;89.50
41953;DHT22;63613;28.200;112.870;2023-04-07T04:06:33;19.70;89.50
41953;DHT22;63613;28.200;112.870;2023-04-07T04:09:00;19.70;89.60
41953;DHT22;63613;28.200;112.870;2023-04-07T04:11:30;19.80;89.60
41953;DHT22;63613;28.200;112.870;2023-04-07T04:13:57;19.80;89.60
41953;DHT22;63613;28.200;112.870;2023-04-07T04:16:24;19.80;89.50
41953;DHT22;63613;28.200;112.870;2023-04-07T04:18:50;19.80;89.50
41953;DHT22;63613;28.200;112.870;2023-04-07T04:21:37;19.90;89.40
41953;DHT22;63613;28.200;112.870;2023-04-07T04:24:04;19.90;89.30
41953;DHT22;63613;28.200;112.870;2023-04-07T04:26:31;19.90;88.90
41953;DHT22;63613;28.200;112.870;2023-04-07T04:28:58;20.00;88.60
41953;DHT22;63613;28.200;112.870;2023-04-07T04:31:28;20.00;88.40
41953;DHT22;63613;28.200;112.870;2023-04-07T04:33:55;20.00;88.50
41953;DHT22;63613;28.200;112.870;2023-04-07T04:36:21;20.10;88.90
41953;DHT22;63613;28.200;112.870;2023-04-07T04:38:50;20.10;89.00
41953;DHT22;63613;28.200;112.870;2023-04-07T04:41:16;20.20;89.00
41953;DHT22;63613;28.200;112.870;2023-04-07T04:43:43;20.20;88.80
41953;DHT22;63613;28.200;112.870;2023-04-07T04:46:12;20.20;88.50
41953;DHT22;63613;28.200;112.870;2023-04-07T04:48:40;20.20;88.70
41953;DHT22;63613;28.200;112.870;2023-04-07T04:51:07;20.30;88.70
41953;DHT22;63613;28.200;112.870;2023-04-07T04:53:36;20.30;88.90
41953;DHT22;63613;28.200;112.870;2023-04-07T04:56:03;20.30;88.80
41953;DHT22;63613;28.200;112.870;2023-04-07T04:58:30;20.30;88.80
41953;DHT22;63613;28.200;112.870;2023-04-07T05:00:57;20.30;88.70
41953;DHT22;63613;28.200;112.870;2023-04-07T05:03:26;20.40;88.70
41953;DHT22;63613;28.200;112.870;2023-04-07T05:05:53;20.40;88.70
41953;DHT22;63613;28.200;112.870;2023-04-07T05:08:20;20.50;88.60
41953;DHT22;63613;28.200;112.870;2023-04-07T05:10:47;20.50;88.50
41953;DHT22;63613;28.200;112.870;2023-04-07T05:13:14;20.50;88.40
41953;DHT22;63613;28.200;112.870;2023-04-07T05:15:44;20.60;87.90
41953;DHT22;63613;28.200;112.870;2023-04-07T05:18:13;20.60;87.50
41953;DHT22;63613;28.200;112.870;2023-04-07T05:20:40;20.70;87.70
41953;DHT22;63613;28.200;112.870;2023-04-07T05:23:07;20.70;87.60
41953;DHT22;63613;28.200;112.870;2023-04-07T05:25:34;20.70;87.70
41953;DHT22;63613;28.200;112.870;2023-04-07T05:28:01;20.70;87.50
41953;DHT22;63613;28.200;112.870;2023-04-07T05:30:29;20.80;87.50
41953;DHT22;63613;28.200;112.870;2023-04-07T05:32:55;20.80;87.50
41953;DHT22;63613;28.200;112.870;2023-04-07T05:35:22;20.80;87.50
41953;DHT22;63613;28.200;112.870;2023-04-07T05:37:49;20.80;87.30
41953;DHT22;63613;28.200;112.870;2023-04-07T05:40:38;20.90;87.10
41953;DHT22;63613;28.200;112.870;2023-04-07T05:43:05;20.90;87.00
41953;DHT22;63613;28.200;112.870;2023-04-07T05:45:52;20.90;86.90
41953;DHT22;63613;28.200;112.870;2023-04-07T05:48:19;21.00;86.90
41953;DHT22;63613;28.200;112.870;2023-04-07T05:50:45;21.00;86.90
41953;DHT22;63613;28.200;112.870;2023-04-07T05:53:12;21.00;86.80
41953;DHT22;63613;28.200;112.870;2023-04-07T05:55:42;21.00;86.60
41953;DHT22;63613;28.200;112.870;2023-04-07T05:58:08;21.10;86.60
41953;DHT22;63613;28.200;112.870;2023-04-07T06:00:36;21.10;86.50
41953;DHT22;63613;28.200;112.870;2023-04-07T06:03:03;21.10;86.40
41953;DHT22;63613;28.200;112.870;2023-04-07T06:05:30;21.20;86.10
41953;DHT22;63613;28.200;112.870;2023-04-07T06:07:58;21.20;86.10
41953;DHT22;63613;28.200;112.870;2023-04-07T06:10:25;21.20;86.00
41953;DHT22;63613;28.200;112.870;2023-04-07T06:12:51;21.30;86.00
41953;DHT22;63613;28.200;112.870;2023-04-07T06:15:18;21.30;85.70
41953;DHT22;63613;28.200;112.870;2023-04-07T06:17:45;21.20;85.50
41953;DHT22;63613;28.200;112.870;2023-04-07T06:20:32;21.20;85.60
41953;DHT22;63613;28.200;112.870;2023-04-07T06:23:01;21.10;85.50
41953;DHT22;63613;28.200;112.870;2023-04-07T06:25:28;21.10;85.30
41953;DHT22;63613;28.200;112.870;2023-04-07T06:27:55;21.10;85.30
41953;DHT22;63613;28.200;112.870;2023-04-07T06:30:42;21.10;85.20
41953;DHT22;63613;28.200;112.870;2023-04-07T06:33:09;21.20;84.60
41953;DHT22;63613;28.200;112.870;2023-04-07T06:35:38;21.20;84.40
41953;DHT22;63613;28.200;112.870;2023-04-07T06:38:04;21.10;84.00
41953;DHT22;63613;28.200;112.870;2023-04-07T06:40:31;21.20;83.80
41953;DHT22;63613;28.200;112.870;2023-04-07T06:43:21;21.20;83.60
41953;DHT22;63613;28.200;112.870;2023-04-07T06:45:48;21.20;83.30
41953;DHT22;63613;28.200;112.870;2023-04-07T06:48:15;21.20;83.20
41953;DHT22;63613;28.200;112.870;2023-04-07T06:50:45;21.20;82.90
41953;DHT22;63613;28.200;112.870;2023-04-07T06:53:15;21.30;82.90
41953;DHT22;63613;28.200;112.870;2023-04-07T06:56:08;21.30;82.90
41953;DHT22;63613;28.200;112.870;2023-04-07T06:58:37;21.30;82.60
41953;DHT22;63613;28.200;112.870;2023-04-07T07:01:05;21.30;82.40
41953;DHT22;63613;28.200;112.870;2023-04-07T07:03:32;21.30;82.30
41953;DHT22;63613;28.200;112.870;2023-04-07T07:06:01;21.30;82.10
41953;DHT22;63613;28.200;112.870;2023-04-07T07:08:47;21.30;81.90
41953;DHT22;63613;28.200;112.870;2023-04-07T07:11:14;21.30;81.80
41953;DHT22;63613;28.200;112.870;2023-04-07T07:13:41;21.20;82.20
41953;DHT22;63613;28.200;112.870;2023-04-07T07:16:31;21.20;82.30
41953;DHT22;63613;28.200;112.870;2023-04-07T07:18:58;21.20;82.30
41953;DHT22;63613;28.200;112.870;2023-04-07T07:21:26;21.10;82.20
41953;DHT22;63613;28.200;112.870;2023-04-07T07:23:53;21.10;82.20
41953;DHT22;63613;28.200;112.870;2023-04-07T07:26:20;21.00;82.50
41953;DHT22;63613;28.200;112.870;2023-04-07T07:28:47;21.00;82.30
41953;DHT22;63613;28.200;112.870;2023-04-07T07:31:14;21.00;82.40
41953;DHT22;63613;28.200;112.870;2023-04-07T07:33:43;20.90;82.40
41953;DHT22;63613;28.200;112.870;2023-04-07T07:36:11;20.90;82.70
41953;DHT22;63613;28.200;112.870;2023-04-07T07:38:38;20.90;82.90
41953;DHT22;63613;28.200;112.870;2023-04-07T07:41:08;20.90;82.80
41953;DHT22;63613;28.200;112.870;2023-04-07T07:43:35;20.80;82.80
41953;DHT22;63613;28.200;112.870;2023-04-07T07:46:03;20.80;82.90
41953;DHT22;63613;28.200;112.870;2023-04-07T07:48:29;20.80;82.70
41953;DHT22;63613;28.200;112.870;2023-04-07T07:50:59;20.80;82.90
41953;DHT22;63613;28.200;112.870;2023-04-07T07:53:26;20.80;83.00
41953;DHT22;63613;28.200;112.870;2023-04-07T07:55:53;20.70;83.10
41953;DHT22;63613;28.200;112.870;2023-04-07T07:58:21;20.60;83.20
41953;DHT22;63613;28.200;112.870;2023-04-07T08:00:48;20.60;83.20
41953;DHT22;63613;28.200;112.870;2023-04-07T08:03:16;20.60;82.90
41953;DHT22;63613;28.200;112.870;2023-04-07T08:05:44;20.60;83.00
41953;DHT22;63613;28.200;112.870;2023-04-07T08:08:11;20.50;82.80
41953;DHT22;63613;28.200;112.870;2023-04-07T08:10:38;20.50;82.70
41953;DHT22;63613;28.200;112.870;2023-04-07T08:13:05;20.50;82.70
41953;DHT22;63613;28.200;112.870;2023-04-07T08:15:32;20.40;82.60
41953;DHT22;63613;28.200;112.870;2023-04-07T08:17:59;20.40;82.50
41953;DHT22;63613;28.200;112.870;2023-04-07T08:20:30;20.40;82.60
41953;DHT22;63613;28.200;112.870;2023-04-07T08:22:57;20.40;82.40
41953;DHT22;63613;28.200;112.870;2023-04-07T08:25:24;20.30;82.30
41953;DHT22;63613;28.200;112.870;2023-04-07T08:27:51;20.40;82.20
41953;DHT22;63613;28.200;112.870;2023-04-07T08:30:18;20.30;81.80
41953;DHT22;63613;28.200;112.870;2023-04-07T08:32:46;20.30;81.30
41953;DHT22;63613;28.200;112.870;2023-04-07T08:35:13;20.30;81.30
41953;DHT22;63613;28.200;112.870;2023-04-07T08:37:42;20.30;81.20
41953;DHT22;63613;28.200;112.870;2023-04-07T08:40:11;20.30;80.90
41953;DHT22;63613;28.200;112.870;2023-04-07T08:42:47;20.20;80.90
41953;DHT22;63613;28.200;112.870;2023-04-07T08:45:17;20.20;80.80
41953;DHT22;63613;28.200;112.870;2023-04-07T08:47:46;20.20;80.80
41953;DHT22;63613;28.200;112.870;2023-04-07T08:50:16;20.20;80.70
41953;DHT22;63613;28.200;112.870;2023-04-07T08:52:55;20.10;80.40
41953;DHT22;63613;28.200;112.870;2023-04-07T08:55:23;20.20;80.10
41953;DHT22;63613;28.200;112.870;2023-04-07T08:57:52;20.10;80.30
41953;DHT22;63613;28.200;112.870;2023-04-07T09:00:20;20.10;80.40
41953;DHT22;63613;28.200;112.870;2023-04-07T09:02:48;20.10;80.20
41953;DHT22;63613;28.200;112.870;2023-04-07T09:05:17;20.10;79.90
41953;DHT22;63613;28.200;112.870;2023-04-07T09:07:46;20.10;79.80
41953;DHT22;63613;28.200;112.870;2023-04-07T09:10:13;20.10;79.50
41953;DHT22;63613;28.200;112.870;2023-04-07T09:12:40;20.10;79.30
41953;DHT22;63613;28.200;112.870;2023-04-07T09:15:10;20.10;79.20
41953;DHT22;63613;28.200;112.870;2023-04-07T09:17:36;20.00;79.30
41953;DHT22;63613;28.200;112.870;2023-04-07T09:20:03;20.00;79.10
41953;DHT22;63613;28.200;112.870;2023-04-07T09:22:38;20.00;79.00
41953;DHT22;63613;28.200;112.870;2023-04-07T09:25:18;20.00;78.70
41953;DHT22;63613;28.200;112.870;2023-04-07T09:28:03;19.90;78.50
41953;DHT22;63613;28.200;112.870;2023-04-07T09:30:32;19.90;78.30
41953;DHT22;63613;28.200;112.870;2023-04-07T09:33:01;19.90;78.20
41953;DHT22;63613;28.200;112.870;2023-04-07T09:35:30;19.90;78.00
41953;DHT22;63613;28.200;112.870;2023-04-07T09:38:07;20.00;78.20
41953;DHT22;63613;28.200;112.870;2023-04-07T09:40:35;20.00;78.40
41953;DHT22;63613;28.200;112.870;2023-04-07T09:43:05;20.00;78.50
41953;DHT22;63613;28.200;112.870;2023-04-07T09:45:33;19.90;78.30
41953;DHT22;63613;28.200;112.870;2023-04-07T09:48:05;19.90;78.20
41953;DHT22;63613;28.200;112.870;2023-04-07T09:50:39;19.90;78.20
41953;DHT22;63613;28.200;112.870;2023-04-07T09:53:06;19.90;77.90
41953;DHT22;63613;28.200;112.870;2023-04-07T09:55:35;19.80;77.90
41953;DHT22;63613;28.200;112.870;2023-04-07T09:58:05;19.80;77.80
41953;DHT22;63613;28.200;112.870;2023-04-07T10:00:32;19.80;77.70
41953;DHT22;63613;28.200;112.870;2023-04-07T10:03:00;19.80;77.70
41953;DHT22;63613;28.200;112.870;2023-04-07T10:05:28;19.80;77.80
41953;DHT22;63613;28.200;112.870;2023-04-07T10:07:56;19.80;78.00
41953;DHT22;63613;28.200;112.870;2023-04-07T10:10:24;19.80;78.30
41953;DHT22;63613;28.200;112.870;2023-04-07T10:12:53;19.80;78.00
41953;DHT22;63613;28.200;112.870;2023-04-07T10:15:21;19.70;77.70
41953;DHT22;63613;28.200;112.870;2023-04-07T10:17:48;19.70;77.60
41953;DHT22;63613;28.200;112.870;2023-04-07T10:20:19;19.70;77.50
41953;DHT22;63613;28.200;112.870;2023-04-07T10:22:51;19.70;77.80
41953;DHT22;63613;28.200;112.870;2023-04-07T10:25:39;19.70;78.10
41953;DHT22;63613;28.200;112.870;2023-04-07T10:28:07;19.70;78.10
41953;DHT22;63613;28.200;112.870;2023-04-07T10:30:38;19.60;77.70
41953;DHT22;63613;28.200;112.870;2023-04-07T10:33:06;19.60;77.50
41953;DHT22;63613;28.200;112.870;2023-04-07T10:36:08;19.60;77.80
41953;DHT22;63613;28.200;112.870;2023-04-07T10:38:35;19.50;77.80
41953;DHT22;63613;28.200;112.870;2023-04-07T10:41:32;19.50;77.90
41953;DHT22;63613;28.200;112.870;2023-04-07T10:44:00;19.50;78.10
41953;DHT22;63613;28.200;112.870;2023-04-07T10:49:15;19.40;78.60
41953;DHT22;63613;28.200;112.870;2023-04-07T10:54:39;19.40;78.40
41953;DHT22;63613;28.200;112.870;2023-04-07T10:57:11;19.40;78.30
41953;DHT22;63613;28.200;112.870;2023-04-07T11:02:40;19.40;78.40
41953;DHT22;63613;28.200;112.870;2023-04-07T11:05:19;19.40;78.40
41953;DHT22;63613;28.200;112.870;2023-04-07T11:07:50;19.30;78.40
41953;DHT22;63613;28.200;112.870;2023-04-07T11:10:17;19.30;78.60
41953;DHT22;63613;28.200;112.870;2023-04-07T11:12:57;19.30;78.70
41953;DHT22;63613;28.200;112.870;2023-04-07T11:15:24;19.30;78.60
41953;DHT22;63613;28.200;112.870;2023-04-07T11:18:14;19.30;79.00
41953;DHT22;63613;28.200;112.870;2023-04-07T11:20:51;19.30;78.80
41953;DHT22;63613;28.200;112.870;2023-04-07T11:23:22;19.30;79.20
41953;DHT22;63613;28.200;112.870;2023-04-07T11:25:52;19.30;79.70
41953;DHT22;63613;28.200;112.870;2023-04-07T11:28:20;19.30;79.90
41953;DHT22;63613;28.200;112.870;2023-04-07T11:30:49;19.30;80.30
41953;DHT22;63613;28.200;112.870;2023-04-07T11:33:22;19.30;80.60
41953;DHT22;63613;28.200;112.870;2023-04-07T11:35:49;19.30;80.70
41953;DHT22;63613;28.200;112.870;2023-04-07T11:38:18;19.30;80.80
41953;DHT22;63613;28.200;112.870;2023-04-07T11:40:46;19.30;80.90
41953;DHT22;63613;28.200;112.870;2023-04-07T11:43:23;19.30;80.60
41953;DHT22;63613;28.200;112.870;2023-04-07T11:46:16;19.30;80.60
41953;DHT22;63613;28.200;112.870;2023-04-07T11:48:44;19.30;80.10
41953;DHT22;63613;28.200;112.870;2023-04-07T11:51:20;19.30;79.90
41953;DHT22;63613;28.200;112.870;2023-04-07T11:53:57;19.30;80.10
41953;DHT22;63613;28.200;112.870;2023-04-07T11:56:26;19.20;79.90
41953;DHT22;63613;28.200;112.870;2023-04-07T11:58:56;19.30;79.70
41953;DHT22;63613;28.200;112.870;2023-04-07T12:01:38;19.30;80.00
41953;DHT22;63613;28.200;112.870;2023-04-07T12:04:12;19.30;80.00
41953;DHT22;63613;28.200;112.870;2023-04-07T12:07:10;19.30;80.10
41953;DHT22;63613;28.200;112.870;2023-04-07T12:09:39;19.30;80.40
41953;DHT22;63613;28.200;112.870;2023-04-07T12:12:07;19.30;80.50
41953;DHT22;63613;28.200;112.870;2023-04-07T12:14:35;19.30;80.70
41953;DHT22;63613;28.200;112.870;2023-04-07T12:17:03;19.20;81.00
41953;DHT22;63613;28.200;112.870;2023-04-07T12:19:31;19.30;80.90
41953;DHT22;63613;28.200;112.870;2023-04-07T12:22:01;19.30;80.50
41953;DHT22;63613;28.200;112.870;2023-04-07T12:24:27;19.20;80.40
41953;DHT22;63613;28.200;112.870;2023-04-07T12:26:54;19.20;80.60
41953;DHT22;63613;28.200;112.870;2023-04-07T12:29:24;19.20;80.50
41953;DHT22;63613;28.200;112.870;2023-04-07T12:31:51;19.30;80.30
41953;DHT22;63613;28.200;112.870;2023-04-07T12:34:18;19.20;80.70
41953;DHT22;63613;28.200;112.870;2023-04-07T12:36:46;19.20;80.90
41953;DHT22;63613;28.200;112.870;2023-04-07T12:39:14;19.30;81.10
41953;DHT22;63613;28.200;112.870;2023-04-07T12:41:43;19.30;81.10
41953;DHT22;63613;28.200;112.870;2023-04-07T12:44:11;19.20;81.30
41953;DHT22;63613;28.200;112.870;2023-04-07T12:46:38;19.20;81.50
41953;DHT22;63613;28.200;112.870;2023-04-07T12:49:04;19.20;81.60
41953;DHT22;63613;28.200;112.870;2023-04-07T12:51:34;19.20;81.30
41953;DHT22;63613;28.200;112.870;2023-04-07T12:54:01;19.20;81.20
41953;DHT22;63613;28.200;112.870;2023-04-07T12:56:51;19.20;81.30
41953;DHT22;63613;28.200;112.870;2023-04-07T12:59:17;19.20;81.50
41953;DHT22;63613;28.200;112.870;2023-04-07T13:01:46;19.20;81.40
41953;DHT22;63613;28.200;112.870;2023-04-07T13:04:13;19.20;81.70
41953;DHT22;63613;28.200;112.870;2023-04-07T13:06:39;19.20;81.40
41953;DHT22;63613;28.200;112.870;2023-04-07T13:09:07;19.20;81.60
41953;DHT22;63613;28.200;112.870;2023-04-07T13:11:36;19.20;81.50
41953;DHT22;63613;28.200;112.870;2023-04-07T13:14:07;19.20;81.40
41953;DHT22;63613;28.200;112.870;2023-04-07T13:16:33;19.20;81.50
41953;DHT22;63613;28.200;112.870;2023-04-07T13:19:00;19.20;81.50
41953;DHT22;63613;28.200;112.870;2023-04-07T13:21:29;19.10;81.60
41953;DHT22;63613;28.200;112.870;2023-04-07T13:23:56;19.20;81.30
41953;DHT22;63613;28.200;112.870;2023-04-07T13:26:25;19.10;81.20
41953;DHT22;63613;28.200;112.870;2023-04-07T13:28:54;19.10;81.40
41953;DHT22;63613;28.200;112.870;2023-04-07T13:31:22;19.20;81.40
41953;DHT22;63613;28.200;112.870;2023-04-07T13:33:55;19.10;81.60
41953;DHT22;63613;28.200;112.870;2023-04-07T13:36:25;19.10;81.70
41953;DHT22;63613;28.200;112.870;2023-04-07T13:38:53;19.10;81.80
41953;DHT22;63613;28.200;112.870;2023-04-07T13:41:24;19.10;81.90
41953;DHT22;63613;28.200;112.870;2023-04-07T13:44:13;19.10;81.90
41953;DHT22;63613;28.200;112.870;2023-04-07T13:46:39;19.10;82.00
41953;DHT22;63613;28.200;112.870;2023-04-07T13:49:09;19.10;82.00
41953;DHT22;63613;28.200;112.870;2023-04-07T13:51:36;19.10;81.90
41953;DHT22;63613;28.200;112.870;2023-04-07T13:54:03;19.10;81.90
41953;DHT22;63613;28.200;112.870;2023-04-07T13:56:32;19.00;81.80
41953;DHT22;63613;28.200;112.870;2023-04-07T13:59:01;19.10;81.90
41953;DHT22;63613;28.200;112.870;2023-04-07T14:01:27;19.00;81.90
41953;DHT22;63613;28.200;112.870;2023-04-07T14:03:55;19.10;81.80
41953;DHT22;63613;28.200;112.870;2023-04-07T14:06:23;19.00;82.00
41953;DHT22;63613;28.200;112.870;2023-04-07T14:08:52;19.00;81.90
41953;DHT22;63613;28.200;112.870;2023-04-07T14:11:19;19.00;82.00
41953;DHT22;63613;28.200;112.870;2023-04-07T14:13:50;19.00;82.10
41953;DHT22;63613;28.200;112.870;2023-04-07T14:16:20;19.00;81.90
41953;DHT22;63613;28.200;112.870;2023-04-07T14:18:47;19.00;81.70
41953;DHT22;63613;28.200;112.870;2023-04-07T14:21:14;19.00;81.60
41953;DHT22;63613;28.200;112.870;2023-04-07T14:23:41;19.00;81.60
41953;DHT22;63613;28.200;112.870;2023-04-07T14:26:12;19.00;81.60
41953;DHT22;63613;28.200;112.870;2023-04-07T14:28:40;19.00;81.50
41953;DHT22;63613;28.200;112.870;2023-04-07T14:31:12;19.00;81.40
41953;DHT22;63613;28.200;112.870;2023-04-07T14:33:41;19.00;81.50
41953;DHT22;63613;28.200;112.870;2023-04-07T14:36:12;19.00;81.20
41953;DHT22;63613;28.200;112.870;2023-04-07T14:38:41;18.90;80.80
41953;DHT22;63613;28.200;112.870;2023-04-07T14:41:09;18.80;73.40
41953;DHT22;63613;28.200;112.870;2023-04-07T14:43:36;18.70;69.30
41953;DHT22;63613;28.200;112.870;2023-04-07T14:46:05;18.60;66.80
41953;DHT22;63613;28.200;112.870;2023-04-07T14:48:34;18.60;65.10
41953;DHT22;63613;28.200;112.870;2023-04-07T14:51:01;18.50;65.70
41953;DHT22;63613;28.200;112.870;2023-04-07T14:53:29;18.50;63.80
41953;DHT22;63613;28.200;112.870;2023-04-07T14:55:56;18.50;65.90
41953;DHT22;63613;28.200;112.870;2023-04-07T14:58:28;18.60;64.60
41953;DHT22;63613;28.200;112.870;2023-04-07T15:00:56;18.50;63.90
41953;DHT22;63613;28.200;112.870;2023-04-07T15:03:24;18.40;63.90
41953;DHT22;63613;28.200;112.870;2023-04-07T15:05:51;18.40;64.00
41953;DHT22;63613;28.200;112.870;2023-04-07T15:08:20;18.30;65.40
41953;DHT22;63613;28.200;112.870;2023-04-07T15:10:51;18.30;66.50
41953;DHT22;63613;28.200;112.870;2023-04-07T15:13:19;18.30;65.20
41953;DHT22;63613;28.200;112.870;2023-04-07T15:15:48;18.30;65.80
41953;DHT22;63613;28.200;112.870;2023-04-07T15:18:19;18.30;65.20
41953;DHT22;63613;28.200;112.870;2023-04-07T15:20:47;18.30;66.50
41953;DHT22;63613;28.200;112.870;2023-04-07T15:23:14;18.30;66.00
41953;DHT22;63613;28.200;112.870;2023-04-07T15:25:50;18.30;65.40
41953;DHT22;63613;28.200;112.870;2023-04-07T15:28:21;18.30;65.20
41953;DHT22;63613;28.200;112.870;2023-04-07T15:30:50;18.20;65.70